sensor_id;sensor_type;location;lat;lon;timestamp;P1;durP1;ratioP1;P2;durP2;ratioP2
37449;SDS011;23309;52.582;13.406;2022-07-12T00:00:32;1.67;;;1.50;;
37449;SDS011;23309;52.582;13.406;2022-07-12T00:02:58;7.37;;;1.97;;
37449;SDS011;23309;52.582;13.406;2022-07-12T00:05:24;2.13;;;1.60;;
37449;SDS011;23309;52.582;13.406;2022-07-12T00:07:50;2.23;;;1.50;;
37449;SDS011;23309;52.582;13.406;2022-07-12T00:10:19;3.83;;;1.80;;
37449;SDS011;23309;52.582;13.406;2022-07-12T00:12:45;5.20;;;1.63;;
37449;SDS011;23309;52.582;13.406;2022-07-12T00:15:11;6.10;;;1.60;;
37449;SDS011;23309;52.582;13.406;2022-07-12T00:17:38;1.30;;;1.20;;
37449;SDS011;23309;52.582;13.406;2022-07-12T00:20:04;1.47;;;1.30;;
37449;SDS011;23309;52.582;13.406;2022-07-12T00:22:32;6.30;;;1.50;;
37449;SDS011;23309;52.582;13.406;2022-07-12T00:24:58;1.97;;;1.30;;
37449;SDS011;23309;52.582;13.406;2022-07-12T00:27:27;2.00;;;1.60;;
37449;SDS011;23309;52.582;13.406;2022-07-12T00:29:53;3.80;;;1.17;;
37449;SDS011;23309;52.582;13.406;2022-07-12T00:32:19;4.40;;;1.57;;
37449;SDS011;23309;52.582;13.406;2022-07-12T00:34:45;3.30;;;1.50;;
37449;SDS011;23309;52.582;13.406;2022-07-12T00:37:11;2.83;;;1.20;;
37449;SDS011;23309;52.582;13.406;2022-07-12T00:39:37;1.30;;;1.10;;
37449;SDS011;23309;52.582;13.406;2022-07-12T00:42:04;2.80;;;1.50;;
37449;SDS011;23309;52.582;13.406;2022-07-12T00:44:33;4.53;;;1.20;;
37449;SDS011;23309;52.582;13.406;2022-07-12T00:46:59;2.07;;;1.80;;
37449;SDS011;23309;52.582;13.406;2022-07-12T00:49:26;6.00;;;1.30;;
37449;SDS011;23309;52.582;13.406;2022-07-12T00:51:53;2.87;;;1.33;;
37449;SDS011;23309;52.582;13.406;2022-07-12T00:54:19;2.77;;;1.27;;
37449;SDS011;23309;52.582;13.406;2022-07-12T00:56:45;2.20;;;1.50;;
37449;SDS011;23309;52.582;13.406;2022-07-12T00:59:12;2.07;;;1.60;;
37449;SDS011;23309;52.582;13.406;2022-07-12T01:01:41;1.83;;;1.47;;
37449;SDS011;23309;52.582;13.406;2022-07-12T01:04:07;2.93;;;1.53;;
37449;SDS011;23309;52.582;13.406;2022-07-12T01:06:34;1.93;;;1.50;;
37449;SDS011;23309;52.582;13.406;2022-07-12T01:09:02;2.10;;;1.30;;
37449;SDS011;23309;52.582;13.406;2022-07-12T01:11:28;1.37;;;1.27;;
37449;SDS011;23309;52.582;13.406;2022-07-12T01:13:54;4.10;;;1.50;;
37449;SDS011;23309;52.582;13.406;2022-07-12T01:16:20;5.10;;;1.50;;
37449;SDS011;23309;52.582;13.406;2022-07-12T01:18:49;2.03;;;1.23;;
37449;SDS011;23309;52.582;13.406;2022-07-12T01:21:18;2.70;;;1.47;;
37449;SDS011;23309;52.582;13.406;2022-07-12T01:23:49;5.20;;;1.60;;
37449;SDS011;23309;52.582;13.406;2022-07-12T01:26:16;2.33;;;1.50;;
37449;SDS011;23309;52.582;13.406;2022-07-12T01:28:42;2.27;;;1.50;;
37449;SDS011;23309;52.582;13.406;2022-07-12T01:31:08;2.03;;;1.67;;
37449;SDS011;23309;52.582;13.406;2022-07-12T01:33:34;4.53;;;1.73;;
37449;SDS011;23309;52.582;13.406;2022-07-12T01:36:01;3.10;;;1.40;;
37449;SDS011;23309;52.582;13.406;2022-07-12T01:38:27;4.23;;;1.60;;
37449;SDS011;23309;52.582;13.406;2022-07-12T01:40:56;2.07;;;1.33;;
37449;SDS011;23309;52.582;13.406;2022-07-12T01:43:23;4.20;;;1.40;;
37449;SDS011;23309;52.582;13.406;2022-07-12T01:45:49;3.20;;;1.20;;
37449;SDS011;23309;52.582;13.406;2022-07-12T01:48:15;1.57;;;1.27;;
37449;SDS011;23309;52.582;13.406;2022-07-12T01:50:42;4.30;;;1.97;;
37449;SDS011;23309;52.582;13.406;2022-07-12T01:53:08;4.63;;;1.93;;
37449;SDS011;23309;52.582;13.406;2022-07-12T01:55:34;3.63;;;1.40;;
37449;SDS011;23309;52.582;13.406;2022-07-12T01:58:03;3.33;;;1.73;;
37449;SDS011;23309;52.582;13.406;2022-07-12T02:00:30;2.50;;;1.53;;
37449;SDS011;23309;52.582;13.406;2022-07-12T02:02:57;2.60;;;1.57;;
37449;SDS011;23309;52.582;13.406;2022-07-12T02:05:23;2.13;;;1.63;;
37449;SDS011;23309;52.582;13.406;2022-07-12T02:07:49;2.40;;;1.73;;
37449;SDS011;23309;52.582;13.406;2022-07-12T02:10:16;3.30;;;2.07;;
37449;SDS011;23309;52.582;13.406;2022-07-12T02:12:43;2.67;;;1.50;;
37449;SDS011;23309;52.582;13.406;2022-07-12T02:15:12;2.27;;;1.53;;
37449;SDS011;23309;52.582;13.406;2022-07-12T02:17:38;6.80;;;1.73;;
37449;SDS011;23309;52.582;13.406;2022-07-12T02:20:05;2.90;;;1.50;;
37449;SDS011;23309;52.582;13.406;2022-07-12T02:22:34;2.53;;;1.87;;
37449;SDS011;23309;52.582;13.406;2022-07-12T02:25:00;8.60;;;4.27;;
37449;SDS011;23309;52.582;13.406;2022-07-12T02:27:26;7.83;;;3.03;;
37449;SDS011;23309;52.582;13.406;2022-07-12T02:29:52;7.23;;;4.00;;
37449;SDS011;23309;52.582;13.406;2022-07-12T02:32:21;5.20;;;3.07;;
37449;SDS011;23309;52.582;13.406;2022-07-12T02:34:47;10.27;;;5.33;;
37449;SDS011;23309;52.582;13.406;2022-07-12T02:37:13;6.40;;;2.80;;
37449;SDS011;23309;52.582;13.406;2022-07-12T02:39:39;7.93;;;2.30;;
37449;SDS011;23309;52.582;13.406;2022-07-12T02:42:05;2.10;;;1.60;;
37449;SDS011;23309;52.582;13.406;2022-07-12T02:44:32;4.10;;;2.53;;
37449;SDS011;23309;52.582;13.406;2022-07-12T02:46:59;4.63;;;2.60;;
37449;SDS011;23309;52.582;13.406;2022-07-12T02:49:27;3.77;;;2.43;;
37449;SDS011;23309;52.582;13.406;2022-07-12T02:51:54;5.60;;;3.00;;
37449;SDS011;23309;52.582;13.406;2022-07-12T02:54:20;4.07;;;3.07;;
37449;SDS011;23309;52.582;13.406;2022-07-12T02:56:46;3.03;;;1.87;;
37449;SDS011;23309;52.582;13.406;2022-07-12T02:59:12;5.20;;;1.90;;
37449;SDS011;23309;52.582;13.406;2022-07-12T03:01:38;2.83;;;1.80;;
37449;SDS011;23309;52.582;13.406;2022-07-12T03:04:04;2.33;;;1.57;;
37449;SDS011;23309;52.582;13.406;2022-07-12T03:06:33;3.40;;;1.97;;
37449;SDS011;23309;52.582;13.406;2022-07-12T03:08:59;3.10;;;1.83;;
37449;SDS011;23309;52.582;13.406;2022-07-12T03:11:25;4.83;;;1.70;;
37449;SDS011;23309;52.582;13.406;2022-07-12T03:13:51;4.90;;;1.67;;
37449;SDS011;23309;52.582;13.406;2022-07-12T03:16:17;3.13;;;1.80;;
37449;SDS011;23309;52.582;13.406;2022-07-12T03:18:43;4.77;;;1.77;;
37449;SDS011;23309;52.582;13.406;2022-07-12T03:21:10;5.70;;;2.20;;
37449;SDS011;23309;52.582;13.406;2022-07-12T03:23:38;2.60;;;1.67;;
37449;SDS011;23309;52.582;13.406;2022-07-12T03:26:06;3.13;;;1.60;;
37449;SDS011;23309;52.582;13.406;2022-07-12T03:28:32;3.80;;;1.70;;
37449;SDS011;23309;52.582;13.406;2022-07-12T03:30:58;5.83;;;1.53;;
37449;SDS011;23309;52.582;13.406;2022-07-12T03:33:24;3.37;;;1.77;;
37449;SDS011;23309;52.582;13.406;2022-07-12T03:35:51;3.83;;;1.70;;
37449;SDS011;23309;52.582;13.406;2022-07-12T03:38:17;2.90;;;1.63;;
37449;SDS011;23309;52.582;13.406;2022-07-12T03:40:45;4.10;;;1.67;;
37449;SDS011;23309;52.582;13.406;2022-07-12T03:43:12;3.10;;;1.70;;
37449;SDS011;23309;52.582;13.406;2022-07-12T03:45:38;3.83;;;1.80;;
37449;SDS011;23309;52.582;13.406;2022-07-12T03:48:04;2.00;;;1.80;;
37449;SDS011;23309;52.582;13.406;2022-07-12T03:50:31;2.60;;;1.57;;
37449;SDS011;23309;52.582;13.406;2022-07-12T03:52:57;4.60;;;1.50;;
37449;SDS011;23309;52.582;13.406;2022-07-12T03:55:23;5.23;;;1.70;;
37449;SDS011;23309;52.582;13.406;2022-07-12T03:57:52;3.13;;;1.40;;
37449;SDS011;23309;52.582;13.406;2022-07-12T04:00:18;2.57;;;1.63;;
37449;SDS011;23309;52.582;13.406;2022-07-12T04:02:44;2.70;;;1.40;;
37449;SDS011;23309;52.582;13.406;2022-07-12T04:05:11;4.07;;;1.80;;
37449;SDS011;23309;52.582;13.406;2022-07-12T04:07:37;1.67;;;1.30;;
37449;SDS011;23309;52.582;13.406;2022-07-12T04:10:05;2.70;;;1.40;;
37449;SDS011;23309;52.582;13.406;2022-07-12T04:12:34;2.07;;;1.50;;
37449;SDS011;23309;52.582;13.406;2022-07-12T04:15:03;4.23;;;1.60;;
37449;SDS011;23309;52.582;13.406;2022-07-12T04:17:31;5.40;;;1.70;;
37449;SDS011;23309;52.582;13.406;2022-07-12T04:19:57;2.13;;;1.50;;
37449;SDS011;23309;52.582;13.406;2022-07-12T04:22:23;7.77;;;1.60;;
37449;SDS011;23309;52.582;13.406;2022-07-12T04:24:49;4.30;;;1.40;;
37449;SDS011;23309;52.582;13.406;2022-07-12T04:27:15;4.30;;;1.50;;
37449;SDS011;23309;52.582;13.406;2022-07-12T04:29:41;3.10;;;1.87;;
37449;SDS011;23309;52.582;13.406;2022-07-12T04:32:10;4.67;;;1.77;;
37449;SDS011;23309;52.582;13.406;2022-07-12T04:34:36;3.00;;;1.60;;
37449;SDS011;23309;52.582;13.406;2022-07-12T04:37:03;6.47;;;1.83;;
37449;SDS011;23309;52.582;13.406;2022-07-12T04:39:29;2.33;;;1.50;;
37449;SDS011;23309;52.582;13.406;2022-07-12T04:41:55;1.70;;;1.30;;
37449;SDS011;23309;52.582;13.406;2022-07-12T04:44:22;4.30;;;1.57;;
37449;SDS011;23309;52.582;13.406;2022-07-12T04:46:48;6.30;;;1.67;;
37449;SDS011;23309;52.582;13.406;2022-07-12T04:49:16;2.53;;;1.50;;
37449;SDS011;23309;52.582;13.406;2022-07-12T04:51:43;2.37;;;1.33;;
37449;SDS011;23309;52.582;13.406;2022-07-12T04:54:09;2.87;;;1.70;;
37449;SDS011;23309;52.582;13.406;2022-07-12T04:56:35;3.40;;;1.30;;
37449;SDS011;23309;52.582;13.406;2022-07-12T04:59:02;1.57;;;1.30;;
37449;SDS011;23309;52.582;13.406;2022-07-12T05:01:28;6.10;;;1.57;;
37449;SDS011;23309;52.582;13.406;2022-07-12T05:03:55;2.13;;;1.37;;
37449;SDS011;23309;52.582;13.406;2022-07-12T05:06:24;1.47;;;1.10;;
37449;SDS011;23309;52.582;13.406;2022-07-12T05:08:50;2.90;;;1.40;;
37449;SDS011;23309;52.582;13.406;2022-07-12T05:11:17;4.50;;;1.40;;
37449;SDS011;23309;52.582;13.406;2022-07-12T05:13:43;4.23;;;1.43;;
37449;SDS011;23309;52.582;13.406;2022-07-12T05:16:09;4.87;;;1.40;;
37449;SDS011;23309;52.582;13.406;2022-07-12T05:18:35;3.33;;;1.30;;
37449;SDS011;23309;52.582;13.406;2022-07-12T05:21:01;2.13;;;1.50;;
37449;SDS011;23309;52.582;13.406;2022-07-12T05:23:31;2.33;;;1.90;;
37449;SDS011;23309;52.582;13.406;2022-07-12T05:25:57;2.30;;;1.10;;
37449;SDS011;23309;52.582;13.406;2022-07-12T05:28:23;3.63;;;1.40;;
37449;SDS011;23309;52.582;13.406;2022-07-12T05:30:49;2.50;;;1.20;;
37449;SDS011;23309;52.582;13.406;2022-07-12T05:33:16;1.57;;;1.10;;
37449;SDS011;23309;52.582;13.406;2022-07-12T05:35:42;1.30;;;1.20;;
37449;SDS011;23309;52.582;13.406;2022-07-12T05:38:08;4.80;;;1.47;;
37449;SDS011;23309;52.582;13.406;2022-07-12T05:40:37;4.17;;;1.50;;
37449;SDS011;23309;52.582;13.406;2022-07-12T05:43:03;2.73;;;1.37;;
37449;SDS011;23309;52.582;13.406;2022-07-12T05:45:29;2.60;;;1.13;;
37449;SDS011;23309;52.582;13.406;2022-07-12T05:47:56;1.43;;;1.20;;
37449;SDS011;23309;52.582;13.406;2022-07-12T05:50:22;2.73;;;1.33;;
37449;SDS011;23309;52.582;13.406;2022-07-12T05:52:48;2.90;;;1.33;;
37449;SDS011;23309;52.582;13.406;2022-07-12T05:55:14;6.47;;;1.27;;
37449;SDS011;23309;52.582;13.406;2022-07-12T05:57:43;1.67;;;1.10;;
37449;SDS011;23309;52.582;13.406;2022-07-12T06:00:10;6.53;;;1.60;;
37449;SDS011;23309;52.582;13.406;2022-07-12T06:02:37;5.93;;;2.00;;
37449;SDS011;23309;52.582;13.406;2022-07-12T06:05:04;4.60;;;1.50;;
37449;SDS011;23309;52.582;13.406;2022-07-12T06:07:32;1.90;;;1.30;;
37449;SDS011;23309;52.582;13.406;2022-07-12T06:09:59;3.63;;;1.07;;
37449;SDS011;23309;52.582;13.406;2022-07-12T06:12:25;2.67;;;1.27;;
37449;SDS011;23309;52.582;13.406;2022-07-12T06:14:54;4.77;;;1.63;;
37449;SDS011;23309;52.582;13.406;2022-07-12T06:17:20;2.93;;;1.30;;
37449;SDS011;23309;52.582;13.406;2022-07-12T06:19:46;1.97;;;1.23;;
37449;SDS011;23309;52.582;13.406;2022-07-12T06:22:12;4.87;;;1.30;;
37449;SDS011;23309;52.582;13.406;2022-07-12T06:24:39;1.40;;;1.30;;
37449;SDS011;23309;52.582;13.406;2022-07-12T06:27:05;2.63;;;1.33;;
37449;SDS011;23309;52.582;13.406;2022-07-12T06:29:31;2.27;;;1.57;;
37449;SDS011;23309;52.582;13.406;2022-07-12T06:32:00;2.80;;;1.30;;
37449;SDS011;23309;52.582;13.406;2022-07-12T06:34:26;2.83;;;1.30;;
37449;SDS011;23309;52.582;13.406;2022-07-12T06:36:52;3.73;;;1.60;;
37449;SDS011;23309;52.582;13.406;2022-07-12T06:39:18;4.40;;;1.30;;
37449;SDS011;23309;52.582;13.406;2022-07-12T06:41:44;2.10;;;1.30;;
37449;SDS011;23309;52.582;13.406;2022-07-12T06:44:10;3.77;;;1.40;;
37449;SDS011;23309;52.582;13.406;2022-07-12T06:46:36;5.83;;;1.37;;
37449;SDS011;23309;52.582;13.406;2022-07-12T06:49:05;7.40;;;1.30;;
37449;SDS011;23309;52.582;13.406;2022-07-12T06:51:31;3.40;;;1.50;;
37449;SDS011;23309;52.582;13.406;2022-07-12T06:53:57;7.93;;;1.47;;
37449;SDS011;23309;52.582;13.406;2022-07-12T06:56:24;4.47;;;1.67;;
37449;SDS011;23309;52.582;13.406;2022-07-12T06:58:50;3.90;;;1.20;;
37449;SDS011;23309;52.582;13.406;2022-07-12T07:01:16;2.73;;;1.10;;
37449;SDS011;23309;52.582;13.406;2022-07-12T07:03:42;3.13;;;1.40;;
37449;SDS011;23309;52.582;13.406;2022-07-12T07:06:11;2.43;;;1.50;;
37449;SDS011;23309;52.582;13.406;2022-07-12T07:08:37;4.00;;;1.63;;
37449;SDS011;23309;52.582;13.406;2022-07-12T07:11:03;1.30;;;1.13;;
37449;SDS011;23309;52.582;13.406;2022-07-12T07:13:30;10.07;;;1.67;;
37449;SDS011;23309;52.582;13.406;2022-07-12T07:15:56;5.00;;;1.60;;
37449;SDS011;23309;52.582;13.406;2022-07-12T07:18:22;2.57;;;1.53;;
37449;SDS011;23309;52.582;13.406;2022-07-12T07:20:48;4.53;;;1.57;;
37449;SDS011;23309;52.582;13.406;2022-07-12T07:23:17;4.60;;;1.33;;
37449;SDS011;23309;52.582;13.406;2022-07-12T07:25:43;7.17;;;1.70;;
37449;SDS011;23309;52.582;13.406;2022-07-12T07:28:10;3.73;;;1.57;;
37449;SDS011;23309;52.582;13.406;2022-07-12T07:30:36;3.63;;;1.60;;
37449;SDS011;23309;52.582;13.406;2022-07-12T07:33:03;4.43;;;1.50;;
37449;SDS011;23309;52.582;13.406;2022-07-12T07:35:29;1.80;;;1.40;;
37449;SDS011;23309;52.582;13.406;2022-07-12T07:37:55;4.47;;;1.70;;
37449;SDS011;23309;52.582;13.406;2022-07-12T07:40:24;2.80;;;1.70;;
37449;SDS011;23309;52.582;13.406;2022-07-12T07:42:50;4.03;;;1.40;;
37449;SDS011;23309;52.582;13.406;2022-07-12T07:45:16;3.30;;;1.50;;
37449;SDS011;23309;52.582;13.406;2022-07-12T07:47:43;5.93;;;1.30;;
37449;SDS011;23309;52.582;13.406;2022-07-12T07:50:10;4.43;;;1.90;;
37449;SDS011;23309;52.582;13.406;2022-07-12T07:52:36;3.87;;;1.30;;
37449;SDS011;23309;52.582;13.406;2022-07-12T07:55:03;2.27;;;1.50;;
37449;SDS011;23309;52.582;13.406;2022-07-12T07:57:33;2.10;;;1.30;;
37449;SDS011;23309;52.582;13.406;2022-07-12T07:59:59;2.77;;;1.27;;
37449;SDS011;23309;52.582;13.406;2022-07-12T08:02:25;2.43;;;1.60;;
37449;SDS011;23309;52.582;13.406;2022-07-12T08:04:52;3.13;;;1.20;;
37449;SDS011;23309;52.582;13.406;2022-07-12T08:07:18;3.93;;;1.30;;
37449;SDS011;23309;52.582;13.406;2022-07-12T08:09:44;2.40;;;1.40;;
37449;SDS011;23309;52.582;13.406;2022-07-12T08:12:10;4.67;;;1.57;;
37449;SDS011;23309;52.582;13.406;2022-07-12T08:14:39;1.80;;;1.30;;
37449;SDS011;23309;52.582;13.406;2022-07-12T08:17:05;2.57;;;1.47;;
37449;SDS011;23309;52.582;13.406;2022-07-12T08:19:32;2.60;;;1.30;;
37449;SDS011;23309;52.582;13.406;2022-07-12T08:21:58;2.50;;;1.63;;
37449;SDS011;23309;52.582;13.406;2022-07-12T08:24:24;3.30;;;1.50;;
37449;SDS011;23309;52.582;13.406;2022-07-12T08:26:50;5.17;;;1.40;;
37449;SDS011;23309;52.582;13.406;2022-07-12T08:29:16;3.70;;;1.30;;
37449;SDS011;23309;52.582;13.406;2022-07-12T08:31:45;5.13;;;1.30;;
37449;SDS011;23309;52.582;13.406;2022-07-12T08:34:11;2.03;;;1.30;;
37449;SDS011;23309;52.582;13.406;2022-07-12T08:36:38;4.33;;;1.80;;
37449;SDS011;23309;52.582;13.406;2022-07-12T08:39:04;4.20;;;1.47;;
37449;SDS011;23309;52.582;13.406;2022-07-12T08:41:30;2.07;;;1.27;;
37449;SDS011;23309;52.582;13.406;2022-07-12T08:43:56;2.60;;;1.17;;
37449;SDS011;23309;52.582;13.406;2022-07-12T08:46:22;3.13;;;1.20;;
37449;SDS011;23309;52.582;13.406;2022-07-12T08:48:51;2.47;;;1.40;;
37449;SDS011;23309;52.582;13.406;2022-07-12T08:51:18;3.20;;;1.70;;
37449;SDS011;23309;52.582;13.406;2022-07-12T08:53:45;5.40;;;2.30;;
37449;SDS011;23309;52.582;13.406;2022-07-12T08:59:08;3.70;;;1.90;;
37449;SDS011;23309;52.582;13.406;2022-07-12T09:01:39;3.93;;;1.60;;
37449;SDS011;23309;52.582;13.406;2022-07-12T09:04:13;4.10;;;1.77;;
37449;SDS011;23309;52.582;13.406;2022-07-12T09:06:41;1.60;;;1.37;;
37449;SDS011;23309;52.582;13.406;2022-07-12T09:09:07;5.87;;;1.50;;
37449;SDS011;23309;52.582;13.406;2022-07-12T09:11:37;5.23;;;1.30;;
37449;SDS011;23309;52.582;13.406;2022-07-12T09:14:04;2.67;;;1.30;;
37449;SDS011;23309;52.582;13.406;2022-07-12T09:16:31;6.20;;;1.33;;
37449;SDS011;23309;52.582;13.406;2022-07-12T09:21:48;5.67;;;1.70;;
37449;SDS011;23309;52.582;13.406;2022-07-12T09:24:16;1.90;;;1.13;;
37449;SDS011;23309;52.582;13.406;2022-07-12T09:26:44;1.97;;;1.30;;
37449;SDS011;23309;52.582;13.406;2022-07-12T09:29:11;2.80;;;1.23;;
37449;SDS011;23309;52.582;13.406;2022-07-12T09:31:39;6.63;;;1.20;;
37449;SDS011;23309;52.582;13.406;2022-07-12T09:34:06;1.53;;;1.10;;
37449;SDS011;23309;52.582;13.406;2022-07-12T09:36:35;1.80;;;1.10;;
37449;SDS011;23309;52.582;13.406;2022-07-12T09:39:01;2.50;;;1.37;;
37449;SDS011;23309;52.582;13.406;2022-07-12T09:41:28;4.80;;;1.47;;
37449;SDS011;23309;52.582;13.406;2022-07-12T09:43:54;1.30;;;1.20;;
37449;SDS011;23309;52.582;13.406;2022-07-12T09:46:21;2.43;;;1.10;;
37449;SDS011;23309;52.582;13.406;2022-07-12T09:48:47;1.50;;;1.07;;
37449;SDS011;23309;52.582;13.406;2022-07-12T09:51:14;3.57;;;1.50;;
37449;SDS011;23309;52.582;13.406;2022-07-12T09:53:45;1.83;;;1.13;;
37449;SDS011;23309;52.582;13.406;2022-07-12T09:56:13;4.80;;;1.30;;
37449;SDS011;23309;52.582;13.406;2022-07-12T09:58:43;2.07;;;1.30;;
37449;SDS011;23309;52.582;13.406;2022-07-12T10:01:16;2.80;;;1.40;;
37449;SDS011;23309;52.582;13.406;2022-07-12T10:03:44;3.93;;;1.20;;
37449;SDS011;23309;52.582;13.406;2022-07-12T10:06:11;1.67;;;1.20;;
37449;SDS011;23309;52.582;13.406;2022-07-12T10:08:41;2.37;;;1.10;;
37449;SDS011;23309;52.582;13.406;2022-07-12T10:11:10;3.20;;;1.23;;
37449;SDS011;23309;52.582;13.406;2022-07-12T10:13:37;2.47;;;1.30;;
37449;SDS011;23309;52.582;13.406;2022-07-12T10:16:04;2.60;;;1.27;;
37449;SDS011;23309;52.582;13.406;2022-07-12T10:18:33;1.30;;;1.20;;
37449;SDS011;23309;52.582;13.406;2022-07-12T10:21:00;2.20;;;1.20;;
37449;SDS011;23309;52.582;13.406;2022-07-12T10:23:30;3.10;;;1.27;;
37449;SDS011;23309;52.582;13.406;2022-07-12T10:26:03;3.70;;;1.60;;
37449;SDS011;23309;52.582;13.406;2022-07-12T10:29:00;1.30;;;1.20;;
37449;SDS011;23309;52.582;13.406;2022-07-12T10:31:29;2.27;;;1.37;;
37449;SDS011;23309;52.582;13.406;2022-07-12T10:33:59;2.80;;;1.50;;
37449;SDS011;23309;52.582;13.406;2022-07-12T10:39:34;2.73;;;1.27;;
37449;SDS011;23309;52.582;13.406;2022-07-12T10:42:17;1.77;;;1.43;;
37449;SDS011;23309;52.582;13.406;2022-07-12T10:44:44;3.20;;;1.57;;
37449;SDS011;23309;52.582;13.406;2022-07-12T10:47:13;1.43;;;1.33;;
37449;SDS011;23309;52.582;13.406;2022-07-12T10:49:47;3.47;;;1.30;;
37449;SDS011;23309;52.582;13.406;2022-07-12T10:52:16;1.60;;;1.07;;
37449;SDS011;23309;52.582;13.406;2022-07-12T11:00:15;2.20;;;1.40;;
37449;SDS011;23309;52.582;13.406;2022-07-12T11:02:42;4.03;;;1.30;;
37449;SDS011;23309;52.582;13.406;2022-07-12T11:05:08;3.73;;;1.60;;
37449;SDS011;23309;52.582;13.406;2022-07-12T11:07:35;2.10;;;1.50;;
37449;SDS011;23309;52.582;13.406;2022-07-12T11:10:02;1.87;;;1.33;;
37449;SDS011;23309;52.582;13.406;2022-07-12T11:12:30;2.30;;;1.37;;
37449;SDS011;23309;52.582;13.406;2022-07-12T11:15:00;2.07;;;1.27;;
37449;SDS011;23309;52.582;13.406;2022-07-12T11:17:29;6.70;;;1.70;;
37449;SDS011;23309;52.582;13.406;2022-07-12T11:20:03;2.90;;;1.20;;
37449;SDS011;23309;52.582;13.406;2022-07-12T11:22:34;8.40;;;1.30;;
37449;SDS011;23309;52.582;13.406;2022-07-12T11:25:03;2.47;;;1.37;;
37449;SDS011;23309;52.582;13.406;2022-07-12T11:27:33;1.63;;;1.30;;
37449;SDS011;23309;52.582;13.406;2022-07-12T11:30:03;3.30;;;1.73;;
37449;SDS011;23309;52.582;13.406;2022-07-12T11:32:38;1.57;;;1.30;;
37449;SDS011;23309;52.582;13.406;2022-07-12T11:35:18;2.00;;;1.30;;
37449;SDS011;23309;52.582;13.406;2022-07-12T11:37:49;4.43;;;1.30;;
37449;SDS011;23309;52.582;13.406;2022-07-12T11:40:21;2.60;;;1.30;;
37449;SDS011;23309;52.582;13.406;2022-07-12T11:42:55;2.33;;;1.33;;
37449;SDS011;23309;52.582;13.406;2022-07-12T11:45:26;2.57;;;1.53;;
37449;SDS011;23309;52.582;13.406;2022-07-12T11:47:53;1.50;;;1.40;;
37449;SDS011;23309;52.582;13.406;2022-07-12T11:50:21;1.60;;;1.40;;
37449;SDS011;23309;52.582;13.406;2022-07-12T11:52:47;3.70;;;1.50;;
37449;SDS011;23309;52.582;13.406;2022-07-12T11:55:13;2.60;;;1.50;;
37449;SDS011;23309;52.582;13.406;2022-07-12T11:57:40;1.50;;;1.30;;
37449;SDS011;23309;52.582;13.406;2022-07-12T12:00:13;1.53;;;1.30;;
37449;SDS011;23309;52.582;13.406;2022-07-12T12:02:44;2.37;;;1.47;;
37449;SDS011;23309;52.582;13.406;2022-07-12T12:05:10;2.60;;;1.40;;
37449;SDS011;23309;52.582;13.406;2022-07-12T12:07:37;2.10;;;1.30;;
37449;SDS011;23309;52.582;13.406;2022-07-12T12:10:04;3.30;;;1.03;;
37449;SDS011;23309;52.582;13.406;2022-07-12T12:12:35;2.70;;;1.60;;
37449;SDS011;23309;52.582;13.406;2022-07-12T12:15:04;2.97;;;1.40;;
37449;SDS011;23309;52.582;13.406;2022-07-12T12:17:32;1.50;;;1.30;;
37449;SDS011;23309;52.582;13.406;2022-07-12T12:20:09;3.30;;;1.50;;
37449;SDS011;23309;52.582;13.406;2022-07-12T12:22:37;1.80;;;1.40;;
37449;SDS011;23309;52.582;13.406;2022-07-12T12:25:04;8.13;;;1.40;;
37449;SDS011;23309;52.582;13.406;2022-07-12T12:27:31;2.53;;;1.30;;
37449;SDS011;23309;52.582;13.406;2022-07-12T12:29:58;1.33;;;1.20;;
37449;SDS011;23309;52.582;13.406;2022-07-12T12:32:29;2.13;;;1.30;;
37449;SDS011;23309;52.582;13.406;2022-07-12T12:35:10;1.53;;;1.30;;
37449;SDS011;23309;52.582;13.406;2022-07-12T12:37:38;1.73;;;1.20;;
37449;SDS011;23309;52.582;13.406;2022-07-12T12:40:05;2.60;;;1.20;;
37449;SDS011;23309;52.582;13.406;2022-07-12T12:42:32;5.33;;;1.40;;
37449;SDS011;23309;52.582;13.406;2022-07-12T12:44:58;3.47;;;1.20;;
37449;SDS011;23309;52.582;13.406;2022-07-12T12:47:25;3.27;;;1.20;;
37449;SDS011;23309;52.582;13.406;2022-07-12T12:49:51;2.40;;;1.40;;
37449;SDS011;23309;52.582;13.406;2022-07-12T12:52:20;2.00;;;1.30;;
37449;SDS011;23309;52.582;13.406;2022-07-12T12:54:46;1.83;;;1.20;;
37449;SDS011;23309;52.582;13.406;2022-07-12T12:57:12;3.40;;;1.30;;
37449;SDS011;23309;52.582;13.406;2022-07-12T12:59:38;5.27;;;1.30;;
37449;SDS011;23309;52.582;13.406;2022-07-12T13:02:05;1.43;;;1.33;;
37449;SDS011;23309;52.582;13.406;2022-07-12T13:04:34;2.33;;;1.20;;
37449;SDS011;23309;52.582;13.406;2022-07-12T13:07:02;5.23;;;1.50;;
37449;SDS011;23309;52.582;13.406;2022-07-12T13:09:32;1.50;;;1.40;;
37449;SDS011;23309;52.582;13.406;2022-07-12T13:11:58;3.30;;;1.20;;
37449;SDS011;23309;52.582;13.406;2022-07-12T13:14:25;2.13;;;1.33;;
37449;SDS011;23309;52.582;13.406;2022-07-12T13:16:52;1.30;;;1.20;;
37449;SDS011;23309;52.582;13.406;2022-07-12T13:19:18;2.10;;;1.27;;
37449;SDS011;23309;52.582;13.406;2022-07-12T13:21:44;1.20;;;1.10;;
37449;SDS011;23309;52.582;13.406;2022-07-12T13:24:10;2.30;;;1.43;;
37449;SDS011;23309;52.582;13.406;2022-07-12T13:26:39;4.10;;;1.40;;
37449;SDS011;23309;52.582;13.406;2022-07-12T13:29:05;4.93;;;1.33;;
37449;SDS011;23309;52.582;13.406;2022-07-12T13:31:31;1.37;;;1.23;;
37449;SDS011;23309;52.582;13.406;2022-07-12T13:33:57;2.60;;;1.30;;
37449;SDS011;23309;52.582;13.406;2022-07-12T13:36:24;3.90;;;1.27;;
37449;SDS011;23309;52.582;13.406;2022-07-12T13:38:50;3.70;;;1.20;;
37449;SDS011;23309;52.582;13.406;2022-07-12T13:41:17;1.40;;;1.23;;
37449;SDS011;23309;52.582;13.406;2022-07-12T13:43:45;1.43;;;1.13;;
37449;SDS011;23309;52.582;13.406;2022-07-12T13:46:12;2.60;;;1.20;;
37449;SDS011;23309;52.582;13.406;2022-07-12T13:48:39;2.10;;;1.40;;
37449;SDS011;23309;52.582;13.406;2022-07-12T13:51:05;1.73;;;1.20;;
37449;SDS011;23309;52.582;13.406;2022-07-12T13:53:31;1.17;;;1.07;;
37449;SDS011;23309;52.582;13.406;2022-07-12T13:55:57;1.73;;;1.40;;
37449;SDS011;23309;52.582;13.406;2022-07-12T13:58:23;1.57;;;1.10;;
37449;SDS011;23309;52.582;13.406;2022-07-12T14:00:52;3.90;;;1.20;;
37449;SDS011;23309;52.582;13.406;2022-07-12T14:03:18;2.80;;;1.37;;
37449;SDS011;23309;52.582;13.406;2022-07-12T14:05:44;1.30;;;1.10;;
37449;SDS011;23309;52.582;13.406;2022-07-12T14:08:11;1.40;;;1.30;;
37449;SDS011;23309;52.582;13.406;2022-07-12T14:10:38;9.03;;;1.27;;
37449;SDS011;23309;52.582;13.406;2022-07-12T14:13:04;1.80;;;1.30;;
37449;SDS011;23309;52.582;13.406;2022-07-12T14:15:30;6.00;;;1.33;;
37449;SDS011;23309;52.582;13.406;2022-07-12T14:17:59;1.50;;;1.40;;
37449;SDS011;23309;52.582;13.406;2022-07-12T14:20:25;4.30;;;1.43;;
37449;SDS011;23309;52.582;13.406;2022-07-12T14:22:51;1.20;;;1.10;;
37449;SDS011;23309;52.582;13.406;2022-07-12T14:25:18;1.83;;;1.33;;
37449;SDS011;23309;52.582;13.406;2022-07-12T14:27:44;2.17;;;1.27;;
37449;SDS011;23309;52.582;13.406;2022-07-12T14:30:10;1.40;;;1.10;;
37449;SDS011;23309;52.582;13.406;2022-07-12T14:32:38;1.47;;;1.23;;
37449;SDS011;23309;52.582;13.406;2022-07-12T14:35:08;3.73;;;1.30;;
37449;SDS011;23309;52.582;13.406;2022-07-12T14:37:35;2.13;;;1.13;;
37449;SDS011;23309;52.582;13.406;2022-07-12T14:40:02;1.40;;;1.30;;
37449;SDS011;23309;52.582;13.406;2022-07-12T14:42:29;3.30;;;1.57;;
37449;SDS011;23309;52.582;13.406;2022-07-12T14:44:56;4.80;;;1.70;;
37449;SDS011;23309;52.582;13.406;2022-07-12T14:47:22;2.90;;;1.10;;